Time;durP1;ratioP1;P1;durP2;ratioP2;P2;SDS_P1;SDS_P2;PMS_P1;PMS_P2;Temp;Humidity;BMP_temperature;BMP_pressure;BME280_temperature;BME280_humidity;BME280_pressure;Samples;Min_cycle;Max_cycle;Signal;HPM_P1;HPM_P2
2021/09/08 00:01:25;;;;;;;;;;;16.60;99.90;;;;;;5091904;28;19927;-88
2021/09/08 00:03:51;;;;;;;;;;;16.60;99.90;;;;;;5140460;27;20294;-88
2021/09/08 00:06:17;;;;;;;;;;;16.60;99.90;;;;;;5094182;28;19928;-88
2021/09/08 00:08:42;;;;;;;;;;;16.50;99.90;;;;;;5079966;28;19920;-88
2021/09/08 00:11:08;;;;;;;;;;;16.50;99.90;;;;;;5101155;28;19935;-88
2021/09/08 00:13:33;;;;;;;;;;;16.50;99.90;;;;;;5067357;28;19992;-87
2021/09/08 00:15:59;;;;;;;;;;;16.50;99.90;;;;;;5092810;28;19924;-89
2021/09/08 00:18:25;;;;;;;;;;;16.40;99.90;;;;;;5140066;27;20389;-88
2021/09/08 00:20:50;;;;;;;;;;;16.40;99.90;;;;;;5077849;28;19931;-87
2021/09/08 00:23:16;;;;;;;;;;;16.40;99.90;;;;;;5073807;28;19981;-88
2021/09/08 00:25:41;;;;;;;;;;;16.40;99.90;;;;;;5087763;28;19930;-89
2021/09/08 00:28:07;;;;;;;;;;;16.40;99.90;;;;;;5078656;28;20407;-87
2021/09/08 00:30:33;;;;;;;;;;;16.40;99.90;;;;;;5101467;28;19928;-88
2021/09/08 00:32:58;;;;;;;;;;;16.40;99.90;;;;;;5101951;28;19920;-88
2021/09/08 00:35:24;;;;;;;;;;;16.30;99.90;;;;;;5077236;28;20421;-87
2021/09/08 00:37:50;;;;;;;;;;;16.30;99.90;;;;;;5084120;28;20434;-87
2021/09/08 00:40:16;;;;;;;;;;;16.30;99.90;;;;;;5065046;28;19919;-88
2021/09/08 00:42:42;;;;;;;;;;;16.20;99.90;;;;;;5080830;28;19923;-88
2021/09/08 00:45:08;;;;;;;;;;;16.20;99.90;;;;;;5077534;28;19930;-87
2021/09/08 00:47:33;;;;;;;;;;;16.20;99.90;;;;;;5118992;27;19919;-88
2021/09/08 00:49:59;;;;;;;;;;;16.20;99.90;;;;;;5085923;28;19969;-89
2021/09/08 00:52:25;;;;;;;;;;;16.20;99.90;;;;;;5094461;28;20343;-88
2021/09/08 00:54:50;;;;;;;;;;;16.20;99.90;;;;;;5135308;27;19930;-88
2021/09/08 00:57:17;;;;;;;;;;;16.20;99.90;;;;;;5063171;28;19924;-88
2021/09/08 00:59:43;;;;;;;;;;;16.10;99.90;;;;;;5078306;28;19920;-89
2021/09/08 01:02:08;;;;;;;;;;;16.10;99.90;;;;;;5138786;27;20070;-89
2021/09/08 01:04:34;;;;;;;;;;;16.20;99.90;;;;;;5110502;27;20518;-88
2021/09/08 01:07:01;;;;;;;;;;;16.10;99.90;;;;;;5095371;28;19927;-88
2021/09/08 01:09:30;;;;;;;;;;;16.10;99.90;;;;;;5079429;28;19963;-88
2021/09/08 01:11:56;;;;;;;;;;;16.10;99.90;;;;;;5125692;27;19969;-88
2021/09/08 01:14:21;;;;;;;;;;;16.10;99.90;;;;;;5115496;27;19967;-89
2021/09/08 01:16:51;;;;;;;;;;;16.10;99.90;;;;;;5087658;28;20293;-88
2021/09/08 01:19:17;;;;;;;;;;;16.10;99.90;;;;;;5116688;27;19924;-88
2021/09/08 01:21:42;;;;;;;;;;;16.00;99.90;;;;;;5092392;28;19934;-88
2021/09/08 01:24:08;;;;;;;;;;;16.00;99.90;;;;;;5083436;28;20015;-88
2021/09/08 01:26:35;;;;;;;;;;;16.00;99.90;;;;;;5076846;28;19955;-89
2021/09/08 01:29:00;;;;;;;;;;;16.00;99.90;;;;;;5092453;28;19931;-88
2021/09/08 01:31:26;;;;;;;;;;;16.00;99.90;;;;;;5137042;27;19920;-88
2021/09/08 01:33:52;;;;;;;;;;;16.00;99.90;;;;;;5080184;28;19919;-88
2021/09/08 01:36:18;;;;;;;;;;;16.00;99.90;;;;;;5076752;28;19924;-88
2021/09/08 01:38:43;;;;;;;;;;;16.00;99.90;;;;;;5081340;28;20585;-88
2021/09/08 01:41:09;;;;;;;;;;;16.00;99.90;;;;;;5138018;27;20010;-88
2021/09/08 01:43:34;;;;;;;;;;;16.00;99.90;;;;;;5100876;28;20397;-89
2021/09/08 01:46:00;;;;;;;;;;;15.90;99.90;;;;;;5064911;28;19953;-89
2021/09/08 01:48:26;;;;;;;;;;;15.90;99.90;;;;;;5070723;28;19930;-88
2021/09/08 01:50:51;;;;;;;;;;;15.90;99.90;;;;;;5075640;28;19928;-88
2021/09/08 01:53:17;;;;;;;;;;;15.90;99.90;;;;;;5080852;28;19959;-88
2021/09/08 01:55:43;;;;;;;;;;;15.90;99.90;;;;;;5103620;28;19981;-89
2021/09/08 01:58:08;;;;;;;;;;;15.80;99.90;;;;;;5082671;28;19970;-88
2021/09/08 02:00:34;;;;;;;;;;;15.90;99.90;;;;;;5068516;28;19974;-89
2021/09/08 02:03:00;;;;;;;;;;;15.80;99.90;;;;;;5135527;27;19942;-89
2021/09/08 02:05:25;;;;;;;;;;;15.80;99.90;;;;;;5082105;28;20279;-88
2021/09/08 02:07:51;;;;;;;;;;;15.80;99.90;;;;;;5138568;27;20363;-88
2021/09/08 02:10:16;;;;;;;;;;;15.80;99.90;;;;;;5061385;28;19978;-86
2021/09/08 02:12:42;;;;;;;;;;;15.80;99.90;;;;;;5135431;27;20387;-89
2021/09/08 02:15:08;;;;;;;;;;;15.80;99.90;;;;;;5094486;28;19920;-88
2021/09/08 02:17:34;;;;;;;;;;;15.80;99.90;;;;;;5077678;28;20379;-88
2021/09/08 02:20:00;;;;;;;;;;;15.80;99.90;;;;;;5082705;28;19924;-88
2021/09/08 02:22:25;;;;;;;;;;;15.80;99.90;;;;;;5081303;28;20011;-88
2021/09/08 02:24:51;;;;;;;;;;;15.80;99.90;;;;;;5088536;28;20387;-87
2021/09/08 02:27:16;;;;;;;;;;;15.80;99.90;;;;;;5088112;28;19981;-88
2021/09/08 02:29:42;;;;;;;;;;;15.70;99.90;;;;;;5065484;28;20298;-88
2021/09/08 02:32:07;;;;;;;;;;;15.80;99.90;;;;;;5101311;28;19924;-89
2021/09/08 02:34:33;;;;;;;;;;;15.70;99.90;;;;;;5080417;28;19928;-88
2021/09/08 02:36:59;;;;;;;;;;;15.80;99.90;;;;;;5082845;28;19930;-89
2021/09/08 02:39:25;;;;;;;;;;;15.80;99.90;;;;;;5092283;28;19923;-88
2021/09/08 02:41:50;;;;;;;;;;;15.80;99.90;;;;;;5105212;28;19928;-88
2021/09/08 02:44:16;;;;;;;;;;;15.70;99.90;;;;;;5086752;28;19924;-88
2021/09/08 02:46:42;;;;;;;;;;;15.70;99.90;;;;;;5086503;28;19926;-88
2021/09/08 02:49:11;;;;;;;;;;;15.70;99.90;;;;;;5085360;28;19924;-88
2021/09/08 02:51:36;;;;;;;;;;;15.70;99.90;;;;;;5066108;28;19924;-88
2021/09/08 02:54:02;;;;;;;;;;;15.70;99.90;;;;;;5091320;28;19930;-88
2021/09/08 02:56:28;;;;;;;;;;;15.60;99.90;;;;;;5090980;28;20007;-89
2021/09/08 02:58:53;;;;;;;;;;;15.60;99.90;;;;;;5121406;27;19971;-88
2021/09/08 03:01:19;;;;;;;;;;;15.60;99.90;;;;;;5106903;28;19981;-87
2021/09/08 03:03:44;;;;;;;;;;;15.60;99.90;;;;;;5091089;28;19927;-89
2021/09/08 03:06:10;;;;;;;;;;;15.50;99.90;;;;;;5103410;28;20310;-88
2021/09/08 03:08:36;;;;;;;;;;;15.50;99.90;;;;;;5089314;28;20275;-89
2021/09/08 03:11:01;;;;;;;;;;;15.50;99.90;;;;;;5084101;28;19976;-88
2021/09/08 03:13:27;;;;;;;;;;;15.50;99.90;;;;;;5096592;28;19931;-89
2021/09/08 03:15:52;;;;;;;;;;;15.50;99.90;;;;;;5082420;28;19931;-88
2021/09/08 03:18:18;;;;;;;;;;;15.40;99.90;;;;;;5087799;28;20340;-88
2021/09/08 03:20:43;;;;;;;;;;;15.40;99.90;;;;;;5064902;28;19927;-88
2021/09/08 03:23:09;;;;;;;;;;;15.40;99.90;;;;;;5085919;28;19970;-89
2021/09/08 03:25:35;;;;;;;;;;;15.40;99.90;;;;;;5077600;28;19924;-88
2021/09/08 03:28:00;;;;;;;;;;;15.40;99.90;;;;;;5102633;28;19920;-89
2021/09/08 03:30:26;;;;;;;;;;;15.40;99.90;;;;;;5067019;28;19920;-87
2021/09/08 03:32:51;;;;;;;;;;;15.40;99.90;;;;;;5114840;27;19935;-89
2021/09/08 03:35:17;;;;;;;;;;;15.40;99.90;;;;;;5074161;28;19965;-88
2021/09/08 03:37:43;;;;;;;;;;;15.40;99.90;;;;;;5138888;27;19989;-88
2021/09/08 03:40:09;;;;;;;;;;;15.40;99.90;;;;;;5138874;27;19973;-88
2021/09/08 03:42:36;;;;;;;;;;;15.40;99.90;;;;;;5104235;28;19932;-88
2021/09/08 03:45:02;;;;;;;;;;;15.40;99.90;;;;;;5140244;27;19931;-88
2021/09/08 03:47:28;;;;;;;;;;;15.30;99.90;;;;;;5077503;28;19931;-89
2021/09/08 03:49:53;;;;;;;;;;;15.30;99.90;;;;;;5079343;28;19927;-88
2021/09/08 03:52:19;;;;;;;;;;;15.30;99.90;;;;;;5141671;27;19938;-88
2021/09/08 03:54:44;;;;;;;;;;;15.30;99.90;;;;;;5090075;28;20245;-88
2021/09/08 03:57:10;;;;;;;;;;;15.20;99.90;;;;;;5138508;27;19920;-88
2021/09/08 03:59:36;;;;;;;;;;;15.20;99.90;;;;;;5095366;28;19923;-88
2021/09/08 04:02:02;;;;;;;;;;;15.20;99.90;;;;;;5115286;27;19989;-88
2021/09/08 04:04:28;;;;;;;;;;;15.20;99.90;;;;;;5092540;28;19924;-87
2021/09/08 04:06:53;;;;;;;;;;;15.20;99.90;;;;;;5094370;28;19928;-88
2021/09/08 04:09:19;;;;;;;;;;;15.20;99.90;;;;;;5067814;28;19930;-88
2021/09/08 04:11:45;;;;;;;;;;;15.20;99.90;;;;;;5088272;28;19928;-89
2021/09/08 04:14:10;;;;;;;;;;;15.20;99.90;;;;;;5095617;28;20025;-88
2021/09/08 04:16:36;;;;;;;;;;;15.20;99.90;;;;;;5140356;27;19936;-87
2021/09/08 04:19:02;;;;;;;;;;;15.20;99.90;;;;;;5098589;28;19976;-88
2021/09/08 04:21:27;;;;;;;;;;;15.20;99.90;;;;;;5091436;28;19924;-88
2021/09/08 04:23:53;;;;;;;;;;;15.10;99.90;;;;;;5059357;28;19920;-88
2021/09/08 04:26:19;;;;;;;;;;;15.10;99.90;;;;;;5086537;28;19923;-88
2021/09/08 04:28:45;;;;;;;;;;;15.10;99.90;;;;;;5084127;28;20408;-88
2021/09/08 04:31:10;;;;;;;;;;;15.10;99.90;;;;;;5085497;28;19924;-88
2021/09/08 04:33:36;;;;;;;;;;;15.10;99.90;;;;;;5077930;28;19920;-88
2021/09/08 04:36:02;;;;;;;;;;;15.10;99.90;;;;;;5085936;28;20310;-89
2021/09/08 04:38:28;;;;;;;;;;;15.00;99.90;;;;;;5076531;28;20015;-88
2021/09/08 04:40:54;;;;;;;;;;;15.10;99.90;;;;;;5060632;28;20337;-88
2021/09/08 04:43:19;;;;;;;;;;;15.00;99.90;;;;;;5116451;27;19932;-89
2021/09/08 04:45:45;;;;;;;;;;;15.10;99.90;;;;;;5087601;28;19923;-88
2021/09/08 04:48:11;;;;;;;;;;;15.00;99.90;;;;;;5087455;28;20354;-89
2021/09/08 04:50:36;;;;;;;;;;;15.00;99.90;;;;;;5068279;28;20022;-89
2021/09/08 04:53:02;;;;;;;;;;;15.00;99.90;;;;;;5094402;28;20031;-88
2021/09/08 04:55:27;;;;;;;;;;;15.00;99.90;;;;;;5077671;28;19930;-88
2021/09/08 04:57:53;;;;;;;;;;;15.00;99.90;;;;;;5069804;28;19962;-88
2021/09/08 05:00:18;;;;;;;;;;;15.00;99.90;;;;;;5092440;28;20264;-88
2021/09/08 05:02:44;;;;;;;;;;;15.00;99.90;;;;;;5087301;28;19939;-87
2021/09/08 05:05:10;;;;;;;;;;;15.00;99.90;;;;;;5072436;28;19969;-92
2021/09/08 05:07:36;;;;;;;;;;;15.00;99.90;;;;;;5080708;28;19927;-92
2021/09/08 05:10:01;;;;;;;;;;;15.00;99.90;;;;;;5108675;28;20371;-92
2021/09/08 05:12:27;;;;;;;;;;;15.00;99.90;;;;;;5092790;28;19927;-92
2021/09/08 05:14:53;;;;;;;;;;;15.00;99.90;;;;;;5093003;28;19931;-93
2021/09/08 05:17:18;;;;;;;;;;;15.00;99.90;;;;;;5108170;28;20010;-92
2021/09/08 05:19:44;;;;;;;;;;;15.00;99.90;;;;;;5075669;28;19924;-91
2021/09/08 05:22:09;;;;;;;;;;;15.00;99.90;;;;;;5108039;28;19931;-88
2021/09/08 05:24:35;;;;;;;;;;;15.00;99.90;;;;;;5074302;28;20393;-90
2021/09/08 05:27:00;;;;;;;;;;;15.00;99.90;;;;;;5074921;28;19920;-93
2021/09/08 05:29:26;;;;;;;;;;;15.00;99.90;;;;;;5074251;28;20014;-92
2021/09/08 05:31:52;;;;;;;;;;;15.10;99.90;;;;;;5073093;28;19924;-88
2021/09/08 05:34:17;;;;;;;;;;;15.00;99.90;;;;;;5107388;28;19927;-88
2021/09/08 05:36:43;;;;;;;;;;;15.10;99.90;;;;;;5076751;28;19928;-89
2021/09/08 05:39:09;;;;;;;;;;;15.10;99.90;;;;;;5065551;28;19924;-88
2021/09/08 05:41:34;;;;;;;;;;;15.20;99.90;;;;;;5101293;28;19928;-87
2021/09/08 05:44:00;;;;;;;;;;;15.20;99.90;;;;;;5085267;28;20438;-88
2021/09/08 05:46:25;;;;;;;;;;;15.20;99.90;;;;;;5083441;28;19927;-89
2021/09/08 05:48:51;;;;;;;;;;;15.30;99.90;;;;;;5067171;28;19923;-88
2021/09/08 05:51:17;;;;;;;;;;;15.30;99.90;;;;;;5099494;28;19919;-87
2021/09/08 05:53:42;;;;;;;;;;;15.30;99.90;;;;;;5119294;27;20004;-88
2021/09/08 05:56:08;;;;;;;;;;;15.30;99.90;;;;;;5093497;28;19998;-88
2021/09/08 05:58:33;;;;;;;;;;;15.30;99.90;;;;;;5100611;28;20590;-91
2021/09/08 06:00:59;;;;;;;;;;;15.40;99.90;;;;;;5085463;28;19955;-88
2021/09/08 06:03:24;;;;;;;;;;;15.40;99.90;;;;;;5101041;28;19927;-88
2021/09/08 06:05:50;;;;;;;;;;;15.50;99.90;;;;;;5067154;28;20403;-88
2021/09/08 06:08:16;;;;;;;;;;;15.40;99.90;;;;;;5087551;28;19927;-88
2021/09/08 06:10:42;;;;;;;;;;;15.50;99.90;;;;;;5079987;28;20010;-88
2021/09/08 06:13:08;;;;;;;;;;;15.50;99.90;;;;;;5103506;28;19924;-88
2021/09/08 06:15:34;;;;;;;;;;;15.60;99.90;;;;;;5101674;28;20341;-88
2021/09/08 06:18:02;;;;;;;;;;;15.60;99.90;;;;;;5121641;27;19927;-88
2021/09/08 06:20:28;;;;;;;;;;;15.60;99.90;;;;;;5069920;28;19915;-88
2021/09/08 06:22:53;;;;;;;;;;;15.70;99.90;;;;;;5084183;28;20380;-88
2021/09/08 06:25:19;;;;;;;;;;;15.70;99.90;;;;;;5117878;27;20465;-88
2021/09/08 06:27:44;;;;;;;;;;;15.70;99.90;;;;;;5119143;27;19964;-89
2021/09/08 06:30:10;;;;;;;;;;;15.70;99.90;;;;;;5086175;28;19928;-88
2021/09/08 06:32:36;;;;;;;;;;;15.80;99.90;;;;;;5086772;28;19931;-87
2021/09/08 06:35:02;;;;;;;;;;;15.80;99.90;;;;;;5101615;28;20466;-87
2021/09/08 06:37:28;;;;;;;;;;;15.90;99.90;;;;;;5113332;27;19942;-89
2021/09/08 06:39:54;;;;;;;;;;;15.90;99.90;;;;;;5107186;28;19969;-88
2021/09/08 06:42:19;;;;;;;;;;;16.00;99.90;;;;;;5107131;28;19928;-88
2021/09/08 06:44:49;;;;;;;;;;;16.00;99.90;;;;;;5104089;27;20366;-89
2021/09/08 06:47:15;;;;;;;;;;;16.00;99.90;;;;;;5119863;27;20441;-89
2021/09/08 06:49:41;;;;;;;;;;;16.10;99.90;;;;;;5095895;27;20332;-91
2021/09/08 06:52:07;;;;;;;;;;;16.10;99.90;;;;;;5078091;28;19920;-90
2021/09/08 06:54:32;;;;;;;;;;;16.10;99.90;;;;;;5093625;28;19969;-90
2021/09/08 06:56:58;;;;;;;;;;;16.10;99.90;;;;;;5111088;28;19997;-87
2021/09/08 06:59:23;;;;;;;;;;;16.20;99.90;;;;;;5127112;27;20696;-88
2021/09/08 07:01:49;;;;;;;;;;;16.20;99.90;;;;;;5110328;28;20058;-89
2021/09/08 07:04:15;;;;;;;;;;;16.20;99.90;;;;;;5127965;27;19931;-87
2021/09/08 07:06:40;;;;;;;;;;;16.30;99.90;;;;;;5124569;27;20333;-86
2021/09/08 07:09:09;;;;;;;;;;;16.30;99.90;;;;;;5109411;28;19924;-86
2021/09/08 07:11:34;;;;;;;;;;;16.30;99.90;;;;;;5123989;27;20002;-88
2021/09/08 07:14:00;;;;;;;;;;;16.40;99.90;;;;;;5083830;28;20031;-86
2021/09/08 07:16:25;;;;;;;;;;;16.40;99.90;;;;;;5072559;28;19925;-87
2021/09/08 07:18:51;;;;;;;;;;;16.40;99.90;;;;;;5089321;28;19924;-87
2021/09/08 07:21:16;;;;;;;;;;;16.50;99.90;;;;;;5093128;28;19927;-88
2021/09/08 07:23:42;;;;;;;;;;;16.50;99.90;;;;;;5074648;28;19931;-88
2021/09/08 07:26:07;;;;;;;;;;;16.50;99.90;;;;;;5110756;28;19970;-88
2021/09/08 07:28:33;;;;;;;;;;;16.60;99.90;;;;;;5119044;27;19924;-88
2021/09/08 07:30:59;;;;;;;;;;;16.60;99.90;;;;;;5107008;27;19959;-88
2021/09/08 07:33:25;;;;;;;;;;;16.60;99.90;;;;;;5076483;28;20007;-88
2021/09/08 07:35:50;;;;;;;;;;;16.70;99.90;;;;;;5087739;28;20513;-88
2021/09/08 07:38:17;;;;;;;;;;;16.70;99.90;;;;;;5085767;28;19987;-87
2021/09/08 07:40:43;;;;;;;;;;;16.80;99.90;;;;;;5092093;28;20406;-88
2021/09/08 07:43:09;;;;;;;;;;;16.80;99.90;;;;;;5075031;28;20011;-88
2021/09/08 07:45:35;;;;;;;;;;;16.80;99.90;;;;;;5067752;28;20034;-88
2021/09/08 07:48:00;;;;;;;;;;;16.90;99.90;;;;;;5088849;28;19920;-89
2021/09/08 07:50:26;;;;;;;;;;;16.90;99.90;;;;;;5138678;27;19920;-88
2021/09/08 07:52:52;;;;;;;;;;;17.00;99.90;;;;;;5075987;28;19920;-88
2021/09/08 07:55:17;;;;;;;;;;;17.00;99.90;;;;;;5071677;28;20264;-89
2021/09/08 07:57:43;;;;;;;;;;;17.10;99.90;;;;;;5144979;27;20329;-88
2021/09/08 08:00:09;;;;;;;;;;;17.10;99.90;;;;;;5091475;27;20186;-89
2021/09/08 08:02:41;;;;;;;;;;;17.10;99.90;;;;;;5106503;27;20181;-88
2021/09/08 08:05:07;;;;;;;;;;;17.20;99.90;;;;;;5086986;27;19928;-88
2021/09/08 08:07:33;;;;;;;;;;;17.20;99.90;;;;;;5090623;27;19927;-88
2021/09/08 08:09:58;;;;;;;;;;;17.20;99.90;;;;;;5086831;28;20003;-88
2021/09/08 08:12:28;;;;;;;;;;;17.30;99.90;;;;;;5097389;27;19927;-88
2021/09/08 08:14:54;;;;;;;;;;;17.40;99.90;;;;;;5094263;27;20416;-89
2021/09/08 08:17:19;;;;;;;;;;;17.40;99.90;;;;;;5098209;28;19923;-89
2021/09/08 08:19:47;;;;;;;;;;;17.50;99.90;;;;;;5088847;28;19924;-89
2021/09/08 08:22:16;;;;;;;;;;;17.50;99.90;;;;;;5110261;27;19920;-89
2021/09/08 08:24:42;;;;;;;;;;;17.50;99.90;;;;;;5091237;28;19928;-89
2021/09/08 08:27:08;;;;;;;;;;;17.60;99.90;;;;;;5112343;27;20374;-88
2021/09/08 08:29:34;;;;;;;;;;;17.60;99.90;;;;;;5121489;27;19934;-88
2021/09/08 08:31:59;;;;;;;;;;;17.70;99.90;;;;;;5124879;27;19971;-88
2021/09/08 08:34:25;;;;;;;;;;;17.80;99.90;;;;;;5108132;27;20398;-88
2021/09/08 08:36:51;;;;;;;;;;;17.80;99.90;;;;;;5112604;27;19924;-89
2021/09/08 08:39:17;;;;;;;;;;;17.90;99.90;;;;;;5108448;28;20383;-88
2021/09/08 08:41:42;;;;;;;;;;;17.90;99.90;;;;;;5122424;27;19972;-88
2021/09/08 08:44:09;;;;;;;;;;;18.00;99.90;;;;;;5126206;27;19931;-89
2021/09/08 08:46:34;;;;;;;;;;;18.00;99.90;;;;;;5092663;27;19942;-88
2021/09/08 08:49:00;;;;;;;;;;;18.10;99.90;;;;;;5094893;27;19923;-90
2021/09/08 08:51:25;;;;;;;;;;;18.10;99.90;;;;;;5110287;27;19924;-89
2021/09/08 08:53:51;;;;;;;;;;;18.20;99.90;;;;;;5097701;27;19923;-89
2021/09/08 08:56:17;;;;;;;;;;;18.30;99.90;;;;;;5084278;28;19963;-89
2021/09/08 08:58:42;;;;;;;;;;;18.30;99.90;;;;;;5080173;28;19923;-89
2021/09/08 09:01:12;;;;;;;;;;;18.40;99.90;;;;;;5086123;28;19966;-89
2021/09/08 09:03:38;;;;;;;;;;;18.50;99.90;;;;;;5088059;28;19930;-89
2021/09/08 09:06:04;;;;;;;;;;;18.50;99.90;;;;;;5104053;28;20046;-89
2021/09/08 09:08:35;;;;;;;;;;;18.60;99.90;;;;;;5104726;28;19920;-89
2021/09/08 09:11:01;;;;;;;;;;;18.60;99.90;;;;;;5105221;28;19967;-88
2021/09/08 09:13:31;;;;;;;;;;;18.70;99.90;;;;;;5104181;28;20025;-89
2021/09/08 09:16:07;;;;;;;;;;;18.70;99.90;;;;;;5105697;28;20287;-90
2021/09/08 09:18:36;;;;;;;;;;;18.80;99.90;;;;;;5087277;28;20007;-89
2021/09/08 09:21:06;;;;;;;;;;;18.80;99.90;;;;;;5104530;28;19970;-88
2021/09/08 09:24:01;;;;;;;;;;;18.90;99.90;;;;;;5091412;28;20006;-88
2021/09/08 09:26:38;;;;;;;;;;;18.90;99.90;;;;;;5095792;28;19975;-89
2021/09/08 09:29:07;;;;;;;;;;;19.00;99.90;;;;;;5103152;28;19923;-89
2021/09/08 09:31:33;;;;;;;;;;;19.10;99.90;;;;;;5117207;27;19920;-89
2021/09/08 09:33:59;;;;;;;;;;;19.10;99.90;;;;;;5126124;27;19967;-89
2021/09/08 09:36:31;;;;;;;;;;;19.20;99.90;;;;;;5124103;28;19924;-89
2021/09/08 09:38:57;;;;;;;;;;;19.20;99.90;;;;;;5074268;28;19920;-89
2021/09/08 09:41:23;;;;;;;;;;;19.30;99.90;;;;;;5126440;27;19920;-89
2021/09/08 09:43:49;;;;;;;;;;;19.30;99.90;;;;;;5094513;28;20397;-89
2021/09/08 09:46:15;;;;;;;;;;;19.40;99.90;;;;;;5129741;27;20780;-89
2021/09/08 09:48:40;;;;;;;;;;;19.40;99.90;;;;;;5074493;28;20006;-89
2021/09/08 09:51:11;;;;;;;;;;;19.50;99.90;;;;;;5090892;28;19934;-88
2021/09/08 09:53:36;;;;;;;;;;;19.50;99.90;;;;;;5111493;28;19967;-89
2021/09/08 09:56:02;;;;;;;;;;;19.50;99.90;;;;;;5129164;27;19957;-89
2021/09/08 09:58:27;;;;;;;;;;;19.60;99.90;;;;;;5126303;27;19924;-89
2021/09/08 10:00:54;;;;;;;;;;;19.70;99.90;;;;;;5105673;28;19927;-90
2021/09/08 10:03:20;;;;;;;;;;;19.60;99.90;;;;;;5084350;28;19935;-88
2021/09/08 10:05:45;;;;;;;;;;;19.70;99.90;;;;;;5064998;28;19934;-89
2021/09/08 10:08:12;;;;;;;;;;;19.70;99.90;;;;;;5066933;28;20399;-88
2021/09/08 10:10:40;;;;;;;;;;;19.80;99.90;;;;;;5145507;27;19983;-88
2021/09/08 10:13:17;;;;;;;;;;;19.80;99.90;;;;;;5117335;27;19920;-88
2021/09/08 10:15:43;;;;;;;;;;;19.80;99.90;;;;;;5093511;28;19930;-88
2021/09/08 10:18:10;;;;;;;;;;;19.90;99.90;;;;;;5104726;28;19921;-88
2021/09/08 10:20:36;;;;;;;;;;;19.90;99.90;;;;;;5104654;28;19969;-89
2021/09/08 10:23:06;;;;;;;;;;;20.00;99.90;;;;;;5076090;28;19927;-88
2021/09/08 10:25:32;;;;;;;;;;;20.00;99.90;;;;;;5095584;28;19920;-89
2021/09/08 10:27:57;;;;;;;;;;;20.10;99.90;;;;;;5090786;28;19928;-90
2021/09/08 10:30:24;;;;;;;;;;;20.10;99.90;;;;;;5121823;27;19920;-89
2021/09/08 10:32:53;;;;;;;;;;;20.20;99.90;;;;;;5093999;28;19963;-88
2021/09/08 10:35:19;;;;;;;;;;;20.20;99.90;;;;;;5091538;28;20855;-89
2021/09/08 10:37:53;;;;;;;;;;;20.30;99.90;;;;;;5093031;28;19946;-88
2021/09/08 10:40:21;;;;;;;;;;;20.30;99.90;;;;;;5108907;28;19926;-89
2021/09/08 10:42:47;;;;;;;;;;;20.40;99.90;;;;;;5089909;28;20043;-89
2021/09/08 10:45:19;;;;;;;;;;;20.40;99.90;;;;;;5090924;28;19937;-89
2021/09/08 10:47:45;;;;;;;;;;;20.50;99.90;;;;;;5106876;28;19926;-88
2021/09/08 10:50:13;;;;;;;;;;;20.50;99.90;;;;;;5106312;28;20301;-88
2021/09/08 10:52:40;;;;;;;;;;;20.60;99.90;;;;;;5108744;28;19967;-89
2021/09/08 10:55:08;;;;;;;;;;;20.70;99.90;;;;;;5124032;27;19981;-88
2021/09/08 10:57:49;;;;;;;;;;;20.70;99.90;;;;;;5125351;27;20382;-88
2021/09/08 11:00:35;;;;;;;;;;;20.70;99.90;;;;;;5122851;27;20019;-89
2021/09/08 11:03:01;;;;;;;;;;;20.70;99.90;;;;;;5126088;27;19931;-89
2021/09/08 11:05:27;;;;;;;;;;;20.80;99.90;;;;;;5108832;27;19924;-89
2021/09/08 11:07:52;;;;;;;;;;;20.90;99.90;;;;;;5126522;27;19928;-89
2021/09/08 11:10:28;;;;;;;;;;;20.90;99.90;;;;;;5109351;28;19946;-88
2021/09/08 11:12:56;;;;;;;;;;;20.90;99.90;;;;;;5090930;28;19920;-88
2021/09/08 11:15:42;;;;;;;;;;;21.00;99.90;;;;;;5113387;27;19931;-88
2021/09/08 11:18:11;;;;;;;;;;;21.00;99.90;;;;;;5091731;28;19969;-88
2021/09/08 11:20:37;;;;;;;;;;;21.10;99.90;;;;;;5107673;28;20104;-89
2021/09/08 11:23:13;;;;;;;;;;;21.10;99.90;;;;;;5108372;28;20318;-89
2021/09/08 11:25:39;;;;;;;;;;;21.10;99.90;;;;;;5108861;28;19926;-88
2021/09/08 11:28:07;;;;;;;;;;;21.20;99.90;;;;;;5125548;27;19962;-89
2021/09/08 11:30:37;;;;;;;;;;;21.20;99.90;;;;;;5088974;28;21198;-88
2021/09/08 11:33:04;;;;;;;;;;;21.30;99.90;;;;;;5108041;28;19964;-88
2021/09/08 11:35:42;;;;;;;;;;;21.30;99.90;;;;;;5091394;28;19924;-88
2021/09/08 11:38:28;;;;;;;;;;;21.40;99.90;;;;;;5113188;27;20401;-89
2021/09/08 11:40:54;;;;;;;;;;;21.40;99.90;;;;;;5121885;27;19935;-87
2021/09/08 11:43:34;;;;;;;;;;;21.50;99.90;;;;;;5121300;27;19928;-87
2021/09/08 11:46:10;;;;;;;;;;;21.50;99.90;;;;;;5091443;28;19967;-87
2021/09/08 11:48:35;;;;;;;;;;;21.60;99.90;;;;;;5090591;28;19966;-88
2021/09/08 11:51:02;;;;;;;;;;;21.60;99.90;;;;;;5089417;28;20367;-88
2021/09/08 11:53:28;;;;;;;;;;;21.60;99.90;;;;;;5087565;28;19920;-87
2021/09/08 11:56:03;;;;;;;;;;;21.70;99.90;;;;;;5089262;28;19930;-87
2021/09/08 11:58:28;;;;;;;;;;;21.70;99.90;;;;;;5086595;28;19959;-86
2021/09/08 12:00:58;;;;;;;;;;;21.80;99.90;;;;;;5086530;28;20377;-87
2021/09/08 12:03:24;;;;;;;;;;;21.80;99.90;;;;;;5088295;28;19928;-87
2021/09/08 12:05:50;;;;;;;;;;;21.80;99.90;;;;;;5088682;28;19934;-86
2021/09/08 12:08:22;;;;;;;;;;;21.90;99.90;;;;;;5105110;28;19923;-87
2021/09/08 12:10:48;;;;;;;;;;;21.90;99.90;;;;;;5105681;28;19930;-86
2021/09/08 12:13:27;;;;;;;;;;;21.90;99.90;;;;;;5089884;28;19924;-87
2021/09/08 12:15:53;;;;;;;;;;;21.90;99.90;;;;;;5087938;28;19976;-87
2021/09/08 12:18:19;;;;;;;;;;;21.90;99.90;;;;;;5105965;28;19923;-86
2021/09/08 12:20:44;;;;;;;;;;;22.00;99.90;;;;;;5107372;28;19920;-87
2021/09/08 12:23:27;;;;;;;;;;;22.00;99.90;;;;;;5113771;27;21478;-87
2021/09/08 12:26:06;;;;;;;;;;;22.00;99.90;;;;;;5107106;27;19924;-86
2021/09/08 12:28:32;;;;;;;;;;;22.10;99.90;;;;;;5105793;28;19923;-87
2021/09/08 12:31:17;;;;;;;;;;;22.10;99.90;;;;;;5124719;27;20370;-86
2021/09/08 12:33:52;;;;;;;;;;;22.10;99.90;;;;;;5124406;27;19923;-87
2021/09/08 12:36:17;;;;;;;;;;;22.10;99.90;;;;;;5109313;27;19942;-87
2021/09/08 12:38:43;;;;;;;;;;;22.10;99.90;;;;;;5073681;28;19950;-87
2021/09/08 12:41:09;;;;;;;;;;;22.10;99.90;;;;;;5072133;28;19942;-87
2021/09/08 12:43:35;;;;;;;;;;;22.10;99.90;;;;;;5123638;27;20442;-87
2021/09/08 12:46:01;;;;;;;;;;;22.20;99.90;;;;;;5124530;27;20406;-87
2021/09/08 12:48:27;;;;;;;;;;;22.20;99.90;;;;;;5105752;28;19935;-87
2021/09/08 12:50:53;;;;;;;;;;;22.30;99.90;;;;;;5106865;28;19919;-88
2021/09/08 12:53:19;;;;;;;;;;;22.30;99.90;;;;;;5095658;28;19935;-88
2021/09/08 12:55:44;;;;;;;;;;;22.30;99.90;;;;;;5088776;28;19924;-88
2021/09/08 12:58:10;;;;;;;;;;;22.30;99.90;;;;;;5071952;28;19920;-88
2021/09/08 13:00:36;;;;;;;;;;;22.30;99.90;;;;;;5090478;28;20535;-88
2021/09/08 13:03:01;;;;;;;;;;;22.40;99.90;;;;;;5102578;28;19931;-87
2021/09/08 13:05:27;;;;;;;;;;;22.40;99.90;;;;;;5107154;28;20114;-88
2021/09/08 13:07:53;;;;;;;;;;;22.50;99.90;;;;;;5116121;27;20375;-87
2021/09/08 13:10:18;;;;;;;;;;;22.50;99.90;;;;;;5089406;28;19924;-88
2021/09/08 13:12:45;;;;;;;;;;;22.50;99.90;;;;;;5099195;28;19924;-88
2021/09/08 13:15:11;;;;;;;;;;;22.50;99.90;;;;;;5089486;28;19928;-88
2021/09/08 13:17:37;;;;;;;;;;;22.50;99.90;;;;;;5088530;28;19976;-88
2021/09/08 13:20:02;;;;;;;;;;;22.50;99.90;;;;;;5098743;28;19930;-87
2021/09/08 13:22:28;;;;;;;;;;;22.50;99.90;;;;;;5071208;28;19931;-88
2021/09/08 13:24:54;;;;;;;;;;;22.50;99.90;;;;;;5072905;28;20431;-88
2021/09/08 13:27:19;;;;;;;;;;;22.50;99.90;;;;;;5093824;28;19923;-89
2021/09/08 13:29:45;;;;;;;;;;;22.60;99.90;;;;;;5073108;28;19923;-88
2021/09/08 13:32:10;;;;;;;;;;;22.60;99.90;;;;;;5104322;28;20017;-87
2021/09/08 13:34:36;;;;;;;;;;;22.50;99.90;;;;;;5072504;28;19934;-87
2021/09/08 13:37:01;;;;;;;;;;;22.60;99.90;;;;;;5115851;28;19923;-88
2021/09/08 13:39:27;;;;;;;;;;;22.60;99.90;;;;;;5087587;28;20010;-89
2021/09/08 13:41:53;;;;;;;;;;;22.60;99.90;;;;;;5097687;28;19924;-88
2021/09/08 13:44:18;;;;;;;;;;;22.60;99.90;;;;;;5091791;28;20006;-89
2021/09/08 13:46:44;;;;;;;;;;;22.70;99.90;;;;;;5071631;28;20314;-88
2021/09/08 13:49:10;;;;;;;;;;;22.70;99.90;;;;;;5090107;28;20062;-89
2021/09/08 13:51:35;;;;;;;;;;;22.70;99.90;;;;;;5091217;28;19927;-89
2021/09/08 13:54:01;;;;;;;;;;;22.70;99.90;;;;;;5106931;28;20177;-88
2021/09/08 13:56:27;;;;;;;;;;;22.70;99.90;;;;;;5090622;28;19958;-89
2021/09/08 13:58:53;;;;;;;;;;;22.70;99.90;;;;;;5108396;28;20309;-89
2021/09/08 14:01:19;;;;;;;;;;;22.80;99.90;;;;;;5124462;27;19924;-89
2021/09/08 14:03:44;;;;;;;;;;;22.70;99.90;;;;;;5124406;28;19986;-89
2021/09/08 14:06:10;;;;;;;;;;;22.70;99.90;;;;;;5124862;27;20032;-89
2021/09/08 14:08:36;;;;;;;;;;;22.80;99.90;;;;;;5107157;28;20297;-88
2021/09/08 14:11:01;;;;;;;;;;;22.80;99.90;;;;;;5107821;28;19956;-89
2021/09/08 14:13:27;;;;;;;;;;;22.80;99.90;;;;;;5091225;28;20358;-88